createdAt,value
2017-07-18T00:00:18.029Z,2.50
2017-07-18T00:02:46.422Z,3.30
2017-07-18T00:05:14.840Z,2.00
2017-07-18T00:07:44.035Z,2.10
2017-07-18T00:10:12.433Z,2.40
2017-07-18T00:12:40.836Z,2.37
2017-07-18T00:15:09.257Z,2.83
2017-07-18T00:17:37.660Z,1.73
2017-07-18T00:20:06.063Z,1.80
2017-07-18T00:22:34.481Z,2.10
2017-07-18T00:25:02.870Z,1.80
2017-07-18T00:27:32.025Z,2.63
2017-07-18T00:30:00.429Z,1.80
2017-07-18T00:32:28.803Z,2.30
2017-07-18T00:34:57.188Z,2.50
2017-07-18T00:37:25.595Z,2.37
2017-07-18T00:39:54.769Z,2.27
2017-07-18T00:42:23.156Z,2.10
2017-07-18T00:44:52.323Z,2.00
2017-07-18T00:47:20.713Z,2.03
2017-07-18T00:49:49.110Z,2.33
2017-07-18T00:52:18.287Z,1.60
2017-07-18T00:54:46.709Z,2.37
2017-07-18T00:57:15.109Z,2.70
2017-07-18T00:59:43.528Z,2.30
2017-07-18T01:02:11.927Z,1.77
2017-07-18T01:04:41.076Z,2.20
2017-07-18T01:07:09.491Z,2.40
2017-07-18T01:09:37.866Z,1.90
2017-07-18T01:12:06.240Z,1.83
2017-07-18T01:14:34.645Z,2.20
2017-07-18T01:17:03.807Z,2.50
2017-07-18T01:19:32.204Z,2.87
2017-07-18T01:22:01.610Z,3.00
2017-07-18T01:24:30.775Z,2.33
2017-07-18T01:26:59.170Z,3.67
2017-07-18T01:29:27.575Z,3.40
2017-07-18T01:31:56.728Z,3.10
2017-07-18T01:34:25.102Z,2.93
2017-07-18T01:36:53.505Z,3.83
2017-07-18T01:39:21.911Z,3.43
2017-07-18T01:41:50.288Z,3.37
2017-07-18T01:44:18.699Z,3.47
2017-07-18T01:46:47.095Z,2.77
2017-07-18T01:49:15.490Z,3.10
2017-07-18T01:51:43.900Z,4.23
2017-07-18T01:54:11.944Z,2.50
2017-07-18T01:56:40.334Z,2.87
2017-07-18T01:59:08.736Z,3.50
2017-07-18T02:01:36.765Z,2.70
2017-07-18T02:04:05.156Z,3.70
2017-07-18T02:06:34.013Z,3.30
2017-07-18T02:09:02.399Z,3.17
2017-07-18T02:11:30.788Z,3.30
2017-07-18T02:13:59.206Z,3.50
2017-07-18T02:16:27.599Z,3.50
2017-07-18T02:18:56.275Z,3.67
2017-07-18T02:21:24.692Z,3.40
2017-07-18T02:23:53.080Z,4.13
2017-07-18T02:26:21.479Z,2.73
2017-07-18T02:28:49.892Z,3.40
2017-07-18T02:31:18.286Z,3.37
2017-07-18T02:33:46.685Z,4.50
2017-07-18T02:36:15.110Z,4.33
2017-07-18T02:38:43.521Z,4.23
2017-07-18T02:41:11.909Z,5.57
2017-07-18T02:43:40.315Z,4.67
2017-07-18T02:46:08.699Z,5.17
2017-07-18T02:48:37.094Z,5.20
2017-07-18T02:51:06.278Z,4.07
2017-07-18T02:53:35.433Z,4.80
2017-07-18T02:56:03.832Z,4.77
2017-07-18T02:58:32.243Z,4.77
2017-07-18T03:01:01.411Z,4.10
2017-07-18T03:03:29.785Z,4.70
2017-07-18T03:05:58.199Z,4.10
2017-07-18T03:08:26.605Z,4.20
2017-07-18T03:10:54.993Z,4.60
2017-07-18T03:13:23.405Z,3.83
2017-07-18T03:15:51.793Z,3.77
2017-07-18T03:18:20.975Z,3.50
2017-07-18T03:20:49.381Z,4.00
2017-07-18T03:23:18.552Z,3.97
2017-07-18T03:25:46.595Z,3.83
2017-07-18T03:28:15.003Z,3.33
2017-07-18T03:30:43.384Z,3.90
2017-07-18T03:33:11.779Z,3.20
2017-07-18T03:35:41.187Z,4.20
2017-07-18T03:38:09.565Z,3.60
2017-07-18T03:40:38.733Z,3.90
2017-07-18T03:43:07.152Z,3.40
2017-07-18T03:45:35.555Z,4.17
2017-07-18T03:48:03.965Z,3.20
2017-07-18T03:50:32.384Z,3.33
2017-07-18T03:53:00.803Z,3.03
2017-07-18T03:55:29.187Z,3.57
2017-07-18T03:57:57.592Z,3.47
2017-07-18T04:00:26.001Z,3.97
2017-07-18T04:02:55.155Z,3.60
2017-07-18T04:05:23.586Z,3.57
2017-07-18T04:07:51.961Z,4.30
2017-07-18T04:10:20.353Z,3.90
2017-07-18T04:12:48.764Z,4.10
2017-07-18T04:15:17.173Z,3.60
2017-07-18T04:17:46.323Z,4.40
2017-07-18T04:20:14.733Z,4.27
2017-07-18T04:22:43.132Z,4.00
2017-07-18T04:25:12.284Z,3.83
2017-07-18T04:27:40.696Z,4.30
2017-07-18T04:30:09.875Z,4.60
2017-07-18T04:32:38.254Z,4.70
2017-07-18T04:35:06.658Z,4.77
2017-07-18T04:37:35.813Z,6.53
2017-07-18T04:40:04.212Z,7.07
2017-07-18T04:42:32.624Z,5.73
2017-07-18T04:45:01.762Z,6.10
2017-07-18T04:47:30.224Z,5.87
2017-07-18T04:49:58.631Z,5.97
2017-07-18T04:52:27.047Z,6.50
2017-07-18T04:54:56.198Z,6.53
2017-07-18T04:57:24.637Z,7.30
2017-07-18T04:59:53.056Z,6.97
2017-07-18T05:02:21.450Z,6.90
2017-07-18T05:04:49.866Z,6.80
2017-07-18T05:07:18.264Z,6.87
2017-07-18T05:09:46.647Z,7.30
2017-07-18T05:12:15.066Z,6.80
2017-07-18T05:14:43.463Z,6.90
2017-07-18T05:17:11.858Z,7.07
2017-07-18T05:19:40.263Z,6.63
2017-07-18T05:22:08.661Z,7.77
2017-07-18T05:24:37.060Z,8.80
2017-07-18T05:27:05.508Z,7.20
2017-07-18T05:29:33.897Z,8.20
2017-07-18T05:32:02.301Z,7.67
2017-07-18T05:34:31.538Z,7.23
2017-07-18T05:36:59.958Z,7.47
2017-07-18T05:39:28.352Z,9.30
2017-07-18T05:41:58.137Z,8.40
2017-07-18T05:44:26.539Z,8.50
2017-07-18T05:46:54.935Z,7.77
2017-07-18T05:49:24.103Z,7.87
2017-07-18T05:51:52.504Z,8.00
2017-07-18T05:54:20.894Z,6.40
2017-07-18T05:56:50.079Z,6.20
2017-07-18T05:59:19.262Z,7.47
2017-07-18T06:01:47.650Z,7.07
2017-07-18T06:04:16.071Z,7.57
2017-07-18T06:06:44.468Z,6.73
2017-07-18T06:09:12.865Z,7.17
2017-07-18T06:11:41.269Z,6.80
2017-07-18T06:14:09.660Z,7.33
2017-07-18T06:16:38.815Z,7.27
2017-07-18T06:19:07.233Z,8.00
2017-07-18T06:21:36.396Z,7.40
2017-07-18T06:24:04.793Z,8.40
2017-07-18T06:26:33.203Z,7.43
2017-07-18T06:29:01.595Z,7.00
2017-07-18T06:31:29.999Z,7.77
2017-07-18T06:33:58.213Z,6.77
2017-07-18T06:36:27.382Z,7.00
2017-07-18T06:38:55.783Z,6.70
2017-07-18T06:41:24.971Z,7.97
2017-07-18T06:43:53.378Z,6.00
2017-07-18T06:46:21.777Z,7.60
2017-07-18T06:48:50.185Z,6.27
2017-07-18T06:51:18.576Z,5.40
2017-07-18T06:53:46.988Z,6.80
2017-07-18T06:56:16.162Z,5.20
2017-07-18T06:58:44.557Z,4.50
2017-07-18T07:01:12.967Z,6.17
2017-07-18T07:03:41.394Z,5.00
2017-07-18T07:06:09.792Z,4.70
2017-07-18T07:08:38.172Z,4.47
2017-07-18T07:11:06.575Z,5.20
2017-07-18T07:13:34.977Z,4.33
2017-07-18T07:16:03.368Z,4.67
2017-07-18T07:18:31.787Z,4.60
2017-07-18T07:21:00.166Z,4.10
2017-07-18T07:23:28.581Z,4.60
2017-07-18T07:25:56.994Z,4.80
2017-07-18T07:28:25.390Z,4.20
2017-07-18T07:30:53.767Z,4.40
2017-07-18T07:33:22.171Z,4.47
2017-07-18T07:35:51.336Z,4.07
2017-07-18T07:38:19.727Z,3.97
2017-07-18T07:40:48.147Z,4.63
2017-07-18T07:43:16.551Z,3.50
2017-07-18T07:45:44.939Z,3.57
2017-07-18T07:48:13.361Z,4.47
2017-07-18T07:50:42.529Z,4.30
2017-07-18T07:53:10.913Z,4.40
2017-07-18T07:55:39.304Z,4.43
2017-07-18T07:58:07.726Z,5.47
2017-07-18T08:00:36.143Z,4.07
2017-07-18T08:03:04.516Z,4.07
2017-07-18T08:05:32.902Z,4.43
2017-07-18T08:08:01.314Z,3.80
2017-07-18T08:10:29.717Z,4.07
2017-07-18T08:12:58.209Z,3.50
2017-07-18T08:15:26.617Z,3.50
2017-07-18T08:17:55.028Z,4.40
2017-07-18T08:20:23.437Z,3.30
2017-07-18T08:22:54.178Z,3.00
2017-07-18T08:25:23.747Z,3.67
2017-07-18T08:27:52.373Z,3.83
2017-07-18T08:30:20.924Z,3.57
2017-07-18T08:35:42.911Z,3.67
2017-07-18T08:38:11.345Z,3.73
2017-07-18T08:40:39.761Z,4.20
2017-07-18T08:43:08.975Z,3.77
2017-07-18T08:45:37.437Z,3.93
2017-07-18T08:48:08.523Z,4.53
2017-07-18T08:50:37.020Z,4.53
2017-07-18T08:53:05.444Z,4.47
2017-07-18T08:55:34.604Z,4.10
2017-07-18T08:58:03.009Z,4.30
2017-07-18T09:00:31.435Z,3.60
2017-07-18T09:02:59.938Z,3.80
2017-07-18T09:05:28.359Z,3.50
2017-07-18T09:07:56.772Z,4.27
2017-07-18T09:10:25.231Z,3.77
2017-07-18T09:12:53.639Z,4.00
2017-07-18T09:15:23.918Z,4.47
2017-07-18T09:17:52.365Z,3.77
2017-07-18T09:20:20.932Z,3.83
2017-07-18T09:22:49.438Z,3.87
2017-07-18T09:25:17.929Z,4.30
2017-07-18T09:27:46.378Z,4.33
2017-07-18T09:30:14.790Z,4.20
2017-07-18T09:32:43.301Z,3.90
2017-07-18T09:35:12.059Z,4.10
2017-07-18T09:37:40.474Z,4.00
2017-07-18T09:40:09.718Z,3.57
2017-07-18T09:42:38.165Z,3.53
2017-07-18T09:45:06.566Z,4.20
2017-07-18T09:47:34.973Z,4.07
2017-07-18T09:50:04.163Z,3.50
2017-07-18T09:52:32.643Z,3.90
2017-07-18T09:55:01.053Z,3.70
2017-07-18T09:57:29.463Z,4.60
2017-07-18T09:59:57.867Z,3.73
2017-07-18T10:02:27.109Z,4.30
2017-07-18T10:04:55.519Z,4.27
2017-07-18T10:07:23.929Z,3.70
2017-07-18T10:09:52.341Z,4.20
2017-07-18T10:12:21.565Z,4.27
2017-07-18T10:14:50.070Z,4.60
2017-07-18T10:17:18.501Z,4.70
2017-07-18T10:19:46.974Z,3.93
2017-07-18T10:22:16.828Z,3.70
2017-07-18T10:24:45.233Z,4.10
2017-07-18T10:27:14.415Z,3.80
2017-07-18T10:29:42.832Z,3.70
2017-07-18T10:32:22.533Z,4.20
2017-07-18T10:34:51.021Z,4.83
2017-07-18T10:37:19.497Z,4.50
2017-07-18T10:39:48.759Z,3.93
2017-07-18T10:42:17.210Z,3.90
2017-07-18T10:44:45.684Z,4.10
2017-07-18T10:47:14.913Z,4.57
2017-07-18T10:49:45.071Z,4.50
2017-07-18T10:52:13.526Z,3.77
2017-07-18T10:54:41.957Z,6.07
2017-07-18T10:57:11.367Z,4.63
2017-07-18T10:59:39.847Z,4.70
2017-07-18T11:02:09.044Z,3.50
2017-07-18T11:04:39.457Z,4.20
2017-07-18T11:07:07.947Z,3.80
2017-07-18T11:09:36.450Z,4.00
2017-07-18T11:12:22.946Z,3.73
2017-07-18T11:14:52.175Z,4.10
2017-07-18T11:17:20.627Z,4.10
2017-07-18T11:19:49.029Z,3.87
2017-07-18T11:22:17.440Z,3.60
2017-07-18T11:25:08.262Z,3.70
2017-07-18T11:27:48.688Z,3.93
2017-07-18T11:30:17.200Z,3.80
2017-07-18T11:32:45.624Z,4.30
2017-07-18T11:35:14.041Z,4.43
2017-07-18T11:37:43.197Z,4.03
2017-07-18T11:40:11.715Z,3.87
2017-07-18T11:42:40.192Z,3.90
2017-07-18T11:45:08.639Z,3.80
2017-07-18T11:47:37.158Z,3.77
2017-07-18T11:50:05.606Z,3.90
2017-07-18T11:52:34.121Z,4.30
2017-07-18T11:55:02.590Z,3.30
2017-07-18T11:57:31.105Z,4.73
2017-07-18T11:59:59.553Z,3.70
2017-07-18T12:02:27.992Z,4.17
2017-07-18T12:04:56.471Z,3.80
2017-07-18T12:07:25.649Z,4.10
2017-07-18T12:09:54.194Z,4.07
2017-07-18T12:12:22.701Z,3.80
2017-07-18T12:14:51.163Z,2.80
2017-07-18T12:17:19.599Z,5.43
2017-07-18T12:19:48.779Z,3.93
2017-07-18T12:22:17.259Z,4.10
2017-07-18T12:24:45.705Z,4.23
2017-07-18T12:27:13.834Z,3.90
2017-07-18T12:29:42.349Z,3.80
2017-07-18T12:32:10.899Z,3.80
2017-07-18T12:34:39.370Z,3.53
2017-07-18T12:37:07.921Z,4.00
2017-07-18T12:39:36.451Z,3.60
2017-07-18T12:42:04.932Z,3.83
2017-07-18T12:44:34.491Z,2.90
2017-07-18T12:47:02.916Z,4.10
2017-07-18T12:49:32.089Z,3.37
2017-07-18T12:52:01.257Z,4.30
2017-07-18T12:54:35.421Z,3.50
2017-07-18T12:57:04.680Z,4.00
2017-07-18T12:59:33.898Z,3.53
2017-07-18T13:02:02.374Z,4.00
2017-07-18T13:04:30.819Z,4.40
2017-07-18T13:06:59.298Z,3.60
2017-07-18T13:09:33.324Z,3.50
2017-07-18T13:12:01.775Z,4.27
2017-07-18T13:14:30.250Z,3.90
2017-07-18T13:16:58.688Z,3.20
2017-07-18T13:19:27.152Z,4.07
2017-07-18T13:21:55.611Z,3.97
2017-07-18T13:27:12.294Z,4.33
2017-07-18T13:29:48.167Z,3.33
2017-07-18T13:32:16.654Z,3.90
2017-07-18T13:34:45.128Z,4.07
2017-07-18T13:37:13.566Z,3.70
2017-07-18T13:39:41.994Z,3.30
2017-07-18T13:42:10.761Z,3.77
2017-07-18T13:44:39.210Z,3.63
2017-07-18T13:47:07.638Z,3.63
2017-07-18T13:49:36.058Z,3.80
2017-07-18T13:52:04.448Z,3.37
2017-07-18T13:54:32.866Z,3.93
2017-07-18T13:57:01.324Z,3.97
2017-07-18T13:59:29.713Z,3.23
2017-07-18T14:01:58.110Z,4.73
2017-07-18T14:04:26.501Z,3.80
2017-07-18T14:06:54.902Z,3.83
2017-07-18T14:09:24.058Z,3.50
2017-07-18T14:11:52.459Z,4.30
2017-07-18T14:14:21.629Z,3.60
2017-07-18T14:16:50.017Z,3.97
2017-07-18T14:19:18.417Z,3.50
2017-07-18T14:21:47.587Z,3.50
2017-07-18T14:24:15.982Z,3.90
2017-07-18T14:26:44.400Z,3.13
2017-07-18T14:29:12.791Z,3.07
2017-07-18T14:31:41.196Z,4.03
2017-07-18T14:34:09.596Z,3.60
2017-07-18T14:36:38.077Z,3.60
2017-07-18T14:39:06.513Z,3.17
2017-07-18T14:41:34.919Z,3.50
2017-07-18T14:44:03.323Z,3.43
2017-07-18T14:46:32.504Z,2.83
2017-07-18T14:49:00.897Z,3.70
2017-07-18T14:51:30.093Z,3.03
2017-07-18T14:53:58.531Z,3.10
2017-07-18T14:56:28.344Z,3.63
2017-07-18T14:58:56.747Z,3.37
2017-07-18T15:01:25.135Z,3.97
2017-07-18T15:03:53.558Z,3.87
2017-07-18T15:06:25.965Z,3.57
2017-07-18T15:08:54.386Z,3.67
2017-07-18T15:11:22.777Z,3.30
2017-07-18T15:13:51.167Z,3.60
2017-07-18T15:16:19.585Z,4.80
2017-07-18T15:18:47.986Z,3.90
2017-07-18T15:21:17.185Z,4.20
2017-07-18T15:23:46.354Z,3.90
2017-07-18T15:26:14.768Z,4.23
2017-07-18T15:28:43.203Z,4.27
2017-07-18T15:31:11.713Z,2.90
2017-07-18T15:33:41.028Z,3.70
2017-07-18T15:36:09.538Z,4.27
2017-07-18T15:38:38.391Z,2.93
2017-07-18T15:41:06.863Z,4.20
2017-07-18T15:43:36.038Z,4.40
2017-07-18T15:46:04.441Z,3.90
2017-07-18T15:48:33.606Z,3.70
2017-07-18T15:51:02.016Z,3.70
2017-07-18T15:53:31.194Z,3.40
2017-07-18T15:55:59.598Z,3.43
2017-07-18T15:58:28.025Z,4.67
2017-07-18T16:00:56.414Z,4.10
2017-07-18T16:03:24.817Z,3.57
2017-07-18T16:05:54.015Z,3.67
2017-07-18T16:08:23.185Z,3.50
2017-07-18T16:10:51.629Z,3.17
2017-07-18T16:13:20.018Z,4.47
2017-07-18T16:15:48.459Z,3.30
2017-07-18T16:18:16.983Z,3.23
2017-07-18T16:20:45.391Z,4.20
2017-07-18T16:23:13.790Z,3.20
2017-07-18T16:25:43.226Z,3.30
2017-07-18T16:28:11.618Z,4.13
2017-07-18T16:30:40.022Z,3.40
2017-07-18T16:33:08.938Z,4.00
2017-07-18T16:35:38.106Z,3.47
2017-07-18T16:38:06.525Z,3.73
2017-07-18T16:40:34.974Z,3.50
2017-07-18T16:43:03.501Z,3.63
2017-07-18T16:45:31.900Z,4.60
2017-07-18T16:48:01.150Z,4.03
2017-07-18T16:50:30.298Z,4.03
2017-07-18T16:52:58.709Z,4.63
2017-07-18T16:55:27.342Z,3.40
2017-07-18T16:57:55.822Z,3.77
2017-07-18T17:00:24.228Z,3.60
2017-07-18T17:02:52.661Z,3.80
2017-07-18T17:05:21.824Z,4.70
2017-07-18T17:07:50.216Z,3.83
2017-07-18T17:10:18.679Z,3.87
2017-07-18T17:12:47.067Z,4.17
2017-07-18T17:15:15.457Z,4.30
2017-07-18T17:17:44.865Z,4.50
2017-07-18T17:20:14.031Z,4.47
2017-07-18T17:22:42.413Z,3.83
2017-07-18T17:25:11.027Z,4.10
2017-07-18T17:27:39.413Z,3.67
2017-07-18T17:30:07.804Z,4.30
2017-07-18T17:32:36.367Z,4.53
2017-07-18T17:35:04.792Z,3.70
2017-07-18T17:37:33.195Z,4.10
2017-07-18T18:13:52.571Z,3.40
2017-07-18T18:16:21.735Z,4.27
2017-07-18T18:18:50.132Z,4.10
2017-07-18T18:21:19.314Z,4.27
2017-07-18T18:23:47.748Z,3.90
2017-07-18T18:26:16.138Z,4.30
2017-07-18T18:28:44.574Z,3.50
2017-07-18T18:31:13.765Z,4.57
2017-07-18T18:33:42.942Z,4.07
2017-07-18T18:36:11.371Z,4.57
2017-07-18T18:38:39.759Z,3.90
2017-07-18T18:41:08.163Z,3.97
2017-07-18T18:43:36.675Z,3.80
2017-07-18T18:46:05.858Z,4.87
2017-07-18T18:48:34.253Z,4.93
2017-07-18T18:51:04.315Z,3.90
2017-07-18T18:53:32.712Z,4.17
2017-07-18T18:56:01.116Z,4.20
2017-07-18T18:58:29.833Z,4.30
2017-07-18T19:00:58.226Z,4.47
2017-07-18T19:03:26.697Z,3.73
2017-07-18T19:05:55.155Z,3.80
2017-07-18T19:08:24.338Z,4.03
2017-07-18T19:10:53.508Z,3.30
2017-07-18T19:13:22.504Z,3.90
2017-07-18T19:15:50.915Z,4.00
2017-07-18T19:18:20.098Z,3.87
2017-07-18T19:20:48.666Z,3.00
2017-07-18T19:23:17.081Z,4.07
2017-07-18T19:25:45.491Z,3.50
2017-07-18T19:28:14.045Z,3.80
2017-07-18T19:30:42.434Z,4.30
2017-07-18T19:33:10.824Z,4.50
2017-07-18T19:35:39.231Z,3.97
2017-07-18T19:38:07.655Z,4.17
2017-07-18T19:40:36.066Z,4.20
2017-07-18T19:43:04.765Z,3.63
2017-07-18T19:45:33.188Z,4.13
2017-07-18T19:48:02.368Z,3.67
2017-07-18T19:50:31.123Z,3.83
2017-07-18T19:52:59.541Z,4.37
2017-07-18T19:55:27.948Z,4.03
2017-07-18T19:57:56.349Z,4.37
2017-07-18T20:00:24.738Z,4.20
2017-07-18T20:02:53.131Z,3.77
2017-07-18T20:05:21.578Z,3.50
2017-07-18T20:07:49.991Z,4.40
2017-07-18T20:10:18.384Z,4.07
2017-07-18T20:12:46.793Z,4.07
2017-07-18T20:15:15.193Z,4.03
2017-07-18T20:17:43.598Z,5.20
2017-07-18T20:20:12.049Z,3.57
2017-07-18T20:22:40.460Z,5.20
2017-07-18T20:25:08.854Z,4.50
2017-07-18T20:27:37.289Z,4.37
2017-07-18T20:30:05.335Z,4.60
2017-07-18T20:32:33.724Z,4.43
2017-07-18T20:35:02.170Z,4.20
2017-07-18T20:37:31.345Z,3.40
2017-07-18T20:39:59.746Z,3.93
2017-07-18T20:42:28.983Z,4.57
2017-07-18T20:44:57.377Z,4.70
2017-07-18T20:47:25.791Z,4.03
2017-07-18T20:49:54.215Z,4.27
2017-07-18T20:52:22.614Z,4.10
2017-07-18T20:54:51.012Z,4.10
2017-07-18T20:57:19.431Z,4.20
2017-07-18T20:59:47.837Z,4.60
2017-07-18T21:02:16.249Z,4.23
2017-07-18T21:04:44.673Z,4.27
2017-07-18T21:07:13.078Z,4.60
2017-07-18T21:09:41.495Z,4.27
2017-07-18T21:12:10.883Z,4.00
2017-07-18T21:14:39.293Z,5.03
2017-07-18T21:17:08.458Z,4.60
2017-07-18T21:19:37.117Z,4.20
2017-07-18T21:22:05.522Z,3.83
2017-07-18T21:24:33.927Z,3.90
2017-07-18T21:27:03.342Z,3.77
2017-07-18T21:29:32.499Z,4.27
2017-07-18T21:32:00.934Z,4.20
2017-07-18T21:34:29.501Z,4.90
2017-07-18T21:36:57.899Z,4.43
2017-07-18T21:39:26.294Z,4.30
2017-07-18T21:41:54.812Z,5.70
2017-07-18T21:44:23.222Z,5.00
2017-07-18T21:46:51.631Z,4.50
2017-07-18T21:49:20.046Z,4.97
2017-07-18T21:51:48.452Z,4.90
2017-07-18T21:54:17.620Z,4.53
2017-07-18T21:56:46.347Z,4.30
2017-07-18T21:59:14.754Z,4.50
2017-07-18T22:01:43.159Z,5.37
2017-07-18T22:04:11.614Z,5.60
2017-07-18T22:06:40.019Z,4.03
2017-07-18T22:09:08.417Z,4.63
2017-07-18T22:11:37.202Z,5.00
2017-07-18T22:14:05.601Z,5.70
2017-07-18T22:16:34.000Z,4.80
2017-07-18T22:19:02.570Z,5.10
2017-07-18T22:21:30.973Z,4.60
2017-07-18T22:23:59.429Z,4.87
2017-07-18T22:26:28.022Z,5.80
2017-07-18T22:28:56.440Z,6.40
2017-07-18T22:31:25.623Z,5.67
2017-07-18T22:33:54.447Z,5.80
2017-07-18T22:36:23.625Z,5.40
2017-07-18T22:38:52.006Z,6.83
2017-07-18T22:41:20.560Z,6.33
2017-07-18T22:43:48.959Z,4.60
2017-07-18T22:46:17.367Z,5.33
2017-07-18T22:48:46.056Z,5.00
2017-07-18T22:51:14.446Z,5.00
2017-07-18T22:53:42.944Z,5.50
2017-07-18T22:56:11.645Z,5.20
2017-07-18T22:58:40.034Z,5.37
2017-07-18T23:01:08.426Z,6.30
2017-07-18T23:03:37.064Z,5.97
2017-07-18T23:06:05.488Z,5.43
2017-07-18T23:08:33.892Z,5.53
2017-07-18T23:11:03.409Z,5.77
2017-07-18T23:13:31.795Z,5.40
2017-07-18T23:16:00.202Z,5.23
2017-07-18T23:18:28.634Z,5.50
2017-07-18T23:20:57.034Z,7.10
2017-07-18T23:23:25.429Z,5.80
2017-07-18T23:25:53.842Z,4.73
2017-07-18T23:28:22.239Z,5.23
2017-07-18T23:30:50.672Z,6.03
2017-07-18T23:33:19.466Z,6.20
2017-07-18T23:35:47.885Z,5.57
2017-07-18T23:38:16.326Z,6.10
2017-07-18T23:40:45.069Z,5.40
2017-07-18T23:43:13.522Z,6.73
2017-07-18T23:45:41.922Z,6.90
2017-07-18T23:48:10.445Z,6.47
2017-07-18T23:50:38.831Z,5.50
2017-07-18T23:53:07.226Z,6.30
2017-07-18T23:55:35.644Z,6.20
2017-07-18T23:58:04.034Z,7.03
